Tudela, Spain
Current Conditions -  °F | °C
As of 9:30 PM on Sunday 21 Dec 2014 (Local Time) from LEZG Reporting Station
Clear Clear  
Wind Chill: 43°   Ceiling: Unl
Heat Index: 43°   Visibility: 6mi
Dew Point: 39°   Wind: 2mph
Humidity: 87%   Direction: 200°SSW
Pressure: 30.5"   Gusts: NA
Location:  42.06°N, 1.61°W
Report Text: LEZG 212030Z 20002KT CAVOK 06/04 Q1033
Loading
Personal Weather Stations






























Interactive Weather Map New forecast layout! Learn more

10-Day Weather Forecast

Advertisements
Track Severe Weather on mobile